createdAt,value
2023-03-08T00:00:21.514Z,10.10
2023-03-08T00:00:53.395Z,10.10
2023-03-08T00:01:26.441Z,9.10
2023-03-08T00:01:58.423Z,11.80
2023-03-08T00:02:30.533Z,10.23
2023-03-08T00:03:04.562Z,10.10
2023-03-08T00:03:36.624Z,10.38
2023-03-08T00:04:10.950Z,10.77
2023-03-08T00:04:43.985Z,9.32
2023-03-08T00:05:16.919Z,11.00
2023-03-08T00:05:48.968Z,9.68
2023-03-08T00:06:22.206Z,10.25
2023-03-08T00:06:54.167Z,10.25
2023-03-08T00:07:26.178Z,9.85
2023-03-08T00:07:59.247Z,9.38
2023-03-08T00:08:31.227Z,10.50
2023-03-08T00:09:03.661Z,10.20
2023-03-08T00:09:38.528Z,10.55
2023-03-08T00:10:12.515Z,9.40
2023-03-08T00:10:44.530Z,9.35
2023-03-08T00:11:17.879Z,11.07
2023-03-08T00:11:49.833Z,11.02
2023-03-08T00:12:22.775Z,9.57
2023-03-08T00:12:55.693Z,10.38
2023-03-08T00:13:27.599Z,11.02
2023-03-08T00:14:01.639Z,8.63
2023-03-08T00:14:34.621Z,10.65
2023-03-08T00:15:07.749Z,10.15
2023-03-08T00:15:40.429Z,9.20
2023-03-08T00:16:14.706Z,9.75
2023-03-08T00:16:46.625Z,9.80
2023-03-08T00:17:19.146Z,10.00
2023-03-08T00:17:52.186Z,9.73
2023-03-08T00:18:24.207Z,10.23
2023-03-08T00:18:56.287Z,9.35
2023-03-08T00:19:29.248Z,10.32
2023-03-08T00:20:01.197Z,11.50
2023-03-08T00:20:33.298Z,10.50
2023-03-08T00:21:08.879Z,9.57
2023-03-08T00:21:40.871Z,9.30
2023-03-08T00:22:13.179Z,9.45
2023-03-08T00:22:46.119Z,10.15
2023-03-08T00:23:18.053Z,8.98
2023-03-08T00:23:52.487Z,10.32
2023-03-08T00:24:25.506Z,9.75
2023-03-08T00:24:57.340Z,10.55
2023-03-08T00:25:30.556Z,9.13
2023-03-08T00:26:02.846Z,9.13
2023-03-08T00:26:35.728Z,10.55
2023-03-08T00:27:07.600Z,9.75
2023-03-08T00:27:39.464Z,10.55
2023-03-08T00:28:12.290Z,8.48
2023-03-08T00:28:46.235Z,9.88
2023-03-08T00:29:18.264Z,8.82
2023-03-08T00:29:51.132Z,10.02
2023-03-08T00:30:23.012Z,9.35
2023-03-08T00:30:59.690Z,9.25
2023-03-08T00:31:32.821Z,9.85
2023-03-08T00:32:04.777Z,9.60
2023-03-08T00:32:36.750Z,10.05
2023-03-08T00:33:09.615Z,9.23
2023-03-08T00:33:41.795Z,9.85
2023-03-08T00:34:13.687Z,10.00
2023-03-08T00:34:47.009Z,8.90
2023-03-08T00:35:19.947Z,8.18
2023-03-08T00:35:56.534Z,10.30
2023-03-08T00:36:29.603Z,9.25
2023-03-08T00:37:01.492Z,9.57
2023-03-08T00:37:33.373Z,10.15
2023-03-08T00:38:06.259Z,10.07
2023-03-08T00:38:38.343Z,9.98
2023-03-08T00:39:11.414Z,9.20
2023-03-08T00:39:44.552Z,9.38
2023-03-08T00:40:16.701Z,9.60
2023-03-08T00:40:49.948Z,10.23
2023-03-08T00:41:22.823Z,9.75
2023-03-08T00:41:54.680Z,8.80
2023-03-08T00:42:26.551Z,9.30
2023-03-08T00:42:59.461Z,9.00
2023-03-08T00:43:31.631Z,9.50
2023-03-08T00:44:04.002Z,8.75
2023-03-08T00:44:36.940Z,9.10
2023-03-08T00:45:10.365Z,10.20
2023-03-08T00:45:42.229Z,8.10
2023-03-08T00:46:15.817Z,9.80
2023-03-08T00:46:47.749Z,9.07
2023-03-08T00:47:19.733Z,9.85
2023-03-08T00:47:52.691Z,8.63
2023-03-08T00:48:25.280Z,9.65
2023-03-08T00:48:57.769Z,9.35
2023-03-08T00:49:30.778Z,8.32
2023-03-08T00:50:02.737Z,10.38
2023-03-08T00:50:34.582Z,10.43
2023-03-08T00:51:07.950Z,9.23
2023-03-08T00:51:39.866Z,9.07
2023-03-08T00:52:12.076Z,9.43
2023-03-08T00:52:44.914Z,8.90
2023-03-08T00:53:16.762Z,8.35
2023-03-08T00:53:48.882Z,9.35
2023-03-08T00:54:21.791Z,9.85
2023-03-08T00:54:53.656Z,9.75
2023-03-08T00:55:25.603Z,9.60
2023-03-08T00:56:01.257Z,8.68
2023-03-08T00:56:33.104Z,8.20
2023-03-08T00:57:05.018Z,10.05
2023-03-08T00:57:37.889Z,9.18
2023-03-08T00:58:09.748Z,9.20
2023-03-08T00:58:42.182Z,9.13
2023-03-08T00:59:14.998Z,8.70
2023-03-08T00:59:47.042Z,8.88
2023-03-08T01:00:19.441Z,9.95
2023-03-08T01:00:52.639Z,8.57
2023-03-08T01:01:24.563Z,10.70
2023-03-08T01:01:56.401Z,10.48
2023-03-08T01:02:29.344Z,9.02
2023-03-08T01:03:01.176Z,9.23
2023-03-08T01:03:33.395Z,8.90
2023-03-08T01:04:06.453Z,8.43
2023-03-08T01:04:38.345Z,9.57
2023-03-08T01:05:10.555Z,9.38
2023-03-08T01:05:45.081Z,8.23
2023-03-08T01:06:17.021Z,8.10
2023-03-08T01:06:49.065Z,9.40
2023-03-08T01:07:23.440Z,8.73
2023-03-08T01:07:55.799Z,8.68
2023-03-08T01:08:27.920Z,8.75
2023-03-08T01:09:01.472Z,8.80
2023-03-08T01:09:33.330Z,8.70
2023-03-08T01:10:05.901Z,10.43
2023-03-08T01:10:38.849Z,9.77
2023-03-08T01:11:18.379Z,10.05
2023-03-08T01:11:51.357Z,8.75
2023-03-08T01:12:25.201Z,8.90
2023-03-08T01:12:57.480Z,9.63
2023-03-08T01:13:32.328Z,9.15
2023-03-08T01:14:05.342Z,9.32
2023-03-08T01:14:39.264Z,9.38
2023-03-08T01:15:11.650Z,9.52
2023-03-08T01:15:43.967Z,9.57
2023-03-08T01:16:17.756Z,9.40
2023-03-08T01:16:50.627Z,9.40
2023-03-08T01:17:22.596Z,9.23
2023-03-08T01:17:54.477Z,9.50
2023-03-08T01:18:27.947Z,8.50
2023-03-08T01:19:00.978Z,8.40
2023-03-08T01:19:32.881Z,9.48
2023-03-08T01:20:07.133Z,9.48
2023-03-08T01:20:39.095Z,8.85
2023-03-08T01:21:12.072Z,8.55
2023-03-08T01:21:44.888Z,7.43
2023-03-08T01:22:16.881Z,8.52
2023-03-08T01:22:48.722Z,9.10
2023-03-08T01:23:21.565Z,9.57
2023-03-08T01:23:53.501Z,8.95
2023-03-08T01:24:25.531Z,8.48
2023-03-08T01:24:58.475Z,8.07
2023-03-08T01:25:30.442Z,8.10
2023-03-08T01:26:04.051Z,8.70
2023-03-08T01:26:38.311Z,9.27
2023-03-08T01:27:10.357Z,8.43
2023-03-08T01:27:42.284Z,8.45
2023-03-08T01:28:14.162Z,8.73
2023-03-08T01:28:47.336Z,8.50
2023-03-08T01:29:19.266Z,8.50
2023-03-08T01:29:51.145Z,8.82
2023-03-08T01:30:24.068Z,7.88
2023-03-08T01:31:01.763Z,8.88
2023-03-08T01:31:33.892Z,9.20
2023-03-08T01:32:07.369Z,8.45
2023-03-08T01:32:39.529Z,8.20
2023-03-08T01:33:11.464Z,8.35
2023-03-08T01:33:44.923Z,8.73
2023-03-08T01:34:16.800Z,8.52
2023-03-08T01:34:49.001Z,7.90
2023-03-08T01:35:21.915Z,8.32
2023-03-08T01:35:53.822Z,9.05
2023-03-08T01:36:27.666Z,8.45
2023-03-08T01:37:00.476Z,8.35
2023-03-08T01:37:33.185Z,9.48
2023-03-08T01:38:05.039Z,8.48
2023-03-08T01:38:37.645Z,9.98
2023-03-08T01:39:10.512Z,8.70
2023-03-08T01:39:42.512Z,8.98
2023-03-08T01:40:15.945Z,8.60
2023-03-08T01:40:48.804Z,10.23
2023-03-08T01:41:22.494Z,7.38
2023-03-08T01:41:55.758Z,7.72
2023-03-08T01:42:29.049Z,7.65
2023-03-08T01:43:12.010Z,8.45
2023-03-08T01:43:43.972Z,9.10
2023-03-08T01:44:18.301Z,8.73
2023-03-08T01:44:52.746Z,9.27
2023-03-08T01:46:01.836Z,8.65
2023-03-08T01:46:35.934Z,8.15
2023-03-08T01:47:13.965Z,9.52
2023-03-08T01:47:45.850Z,7.43
2023-03-08T01:48:18.797Z,8.50
2023-03-08T01:48:56.540Z,8.48
2023-03-08T01:49:33.323Z,8.55
2023-03-08T01:50:11.448Z,8.55
2023-03-08T01:50:46.384Z,8.82
2023-03-08T01:51:24.568Z,8.75
2023-03-08T01:52:03.857Z,8.23
2023-03-08T01:52:39.549Z,9.10
2023-03-08T01:53:12.432Z,8.05
2023-03-08T01:53:45.550Z,9.25
2023-03-08T01:54:20.925Z,8.73
2023-03-08T01:54:56.468Z,8.70
2023-03-08T01:55:28.325Z,8.75
2023-03-08T01:56:00.185Z,8.75
2023-03-08T01:56:34.106Z,7.65
2023-03-08T01:57:12.634Z,9.52
2023-03-08T01:57:49.710Z,8.77
2023-03-08T01:58:21.930Z,9.00
2023-03-08T01:58:54.563Z,8.38
2023-03-08T01:59:28.878Z,8.13
2023-03-08T02:00:08.755Z,8.73
2023-03-08T02:00:40.590Z,8.15
2023-03-08T02:01:13.568Z,9.18
2023-03-08T02:01:45.823Z,7.88
2023-03-08T02:02:20.968Z,8.57
2023-03-08T02:02:55.379Z,9.25
2023-03-08T02:03:27.246Z,9.00
2023-03-08T02:04:00.124Z,9.05
2023-03-08T02:04:32.009Z,8.80
2023-03-08T02:05:04.067Z,9.45
2023-03-08T02:05:38.432Z,8.93
2023-03-08T02:06:10.307Z,8.80
2023-03-08T02:06:43.820Z,9.38
2023-03-08T02:07:16.684Z,8.85
2023-03-08T02:07:48.808Z,8.88
2023-03-08T02:08:20.644Z,10.00
2023-03-08T02:08:53.781Z,8.70
2023-03-08T02:09:26.019Z,7.78
2023-03-08T02:09:58.083Z,10.10
2023-03-08T02:10:30.947Z,8.82
2023-03-08T02:11:02.994Z,10.45
2023-03-08T02:11:37.050Z,8.38
2023-03-08T02:12:14.017Z,8.13
2023-03-08T02:12:47.039Z,8.23
2023-03-08T02:13:21.514Z,9.25
2023-03-08T02:13:55.244Z,8.77
2023-03-08T02:14:27.950Z,9.25
2023-03-08T02:15:01.661Z,8.75
2023-03-08T02:15:34.571Z,8.20
2023-03-08T02:16:09.879Z,9.43
2023-03-08T02:16:41.780Z,8.60
2023-03-08T02:17:14.709Z,9.15
2023-03-08T02:17:47.337Z,8.95
2023-03-08T02:18:19.210Z,8.45
2023-03-08T02:18:57.661Z,9.35
2023-03-08T02:19:35.467Z,7.78
2023-03-08T02:20:14.042Z,9.18
2023-03-08T02:20:47.066Z,8.27
2023-03-08T02:21:18.971Z,8.40
2023-03-08T02:21:51.816Z,10.27
2023-03-08T02:22:24.035Z,9.82
2023-03-08T02:23:07.826Z,9.07
2023-03-08T02:23:40.636Z,10.23
2023-03-08T02:24:20.694Z,9.02
2023-03-08T02:24:52.571Z,9.25
2023-03-08T02:25:28.082Z,7.55
2023-03-08T02:26:03.958Z,9.50
2023-03-08T02:26:37.245Z,9.40
2023-03-08T02:27:14.379Z,9.40
2023-03-08T02:27:46.326Z,9.50
2023-03-08T02:28:18.734Z,9.13
2023-03-08T02:28:51.573Z,10.82
2023-03-08T02:29:23.463Z,8.23
2023-03-08T02:29:55.322Z,9.80
2023-03-08T02:30:32.321Z,9.18
2023-03-08T02:31:04.466Z,9.98
2023-03-08T02:31:36.315Z,9.70
2023-03-08T02:32:09.698Z,8.30
2023-03-08T02:32:41.760Z,8.00
2023-03-08T02:33:13.676Z,8.52
2023-03-08T02:33:46.537Z,9.18
2023-03-08T02:34:18.387Z,8.43
2023-03-08T02:34:50.237Z,9.43
2023-03-08T02:35:23.203Z,9.43
2023-03-08T02:35:55.144Z,9.80
2023-03-08T02:36:27.060Z,8.88
2023-03-08T02:36:59.885Z,9.43
2023-03-08T02:37:31.775Z,9.07
2023-03-08T02:38:04.970Z,9.90
2023-03-08T02:38:38.172Z,10.10
2023-03-08T02:39:10.002Z,9.25
2023-03-08T02:39:41.963Z,8.95
2023-03-08T02:40:15.183Z,10.05
2023-03-08T02:40:51.258Z,9.40
2023-03-08T02:41:23.148Z,9.25
2023-03-08T02:41:56.159Z,8.85
2023-03-08T02:42:28.056Z,8.43
2023-03-08T02:42:59.891Z,8.88
2023-03-08T02:43:32.777Z,9.68
2023-03-08T02:44:04.917Z,9.00
2023-03-08T02:44:36.750Z,7.80
2023-03-08T02:45:10.768Z,9.70
2023-03-08T02:45:42.636Z,9.15
2023-03-08T02:46:15.167Z,9.88
2023-03-08T02:46:48.137Z,9.38
2023-03-08T02:47:20.058Z,9.48
2023-03-08T02:47:51.988Z,8.73
2023-03-08T02:48:24.877Z,9.00
2023-03-08T02:48:56.753Z,9.25
2023-03-08T02:49:28.603Z,9.77
2023-03-08T02:50:00.443Z,9.15
2023-03-08T02:50:33.502Z,9.65
2023-03-08T02:51:05.640Z,9.95
2023-03-08T02:51:37.490Z,9.40
2023-03-08T02:52:10.363Z,8.80
2023-03-08T02:52:42.224Z,9.90
2023-03-08T02:53:15.472Z,8.25
2023-03-08T02:53:48.338Z,9.82
2023-03-08T02:54:20.200Z,12.10
2023-03-08T02:54:53.706Z,9.43
2023-03-08T02:55:27.036Z,9.57
2023-03-08T02:55:58.896Z,8.85
2023-03-08T02:56:30.744Z,9.25
2023-03-08T02:57:03.605Z,9.32
2023-03-08T02:57:35.461Z,8.93
2023-03-08T02:58:09.384Z,9.73
2023-03-08T02:58:42.255Z,9.25
2023-03-08T02:59:14.322Z,8.60
2023-03-08T02:59:46.241Z,9.32
2023-03-08T03:00:19.099Z,8.90
2023-03-08T03:00:51.967Z,9.52
2023-03-08T03:01:24.078Z,10.30
2023-03-08T03:01:57.176Z,9.95
2023-03-08T03:02:29.068Z,9.32
2023-03-08T03:03:01.927Z,8.55
2023-03-08T03:03:33.831Z,9.02
2023-03-08T03:04:05.732Z,10.00
2023-03-08T03:04:38.845Z,8.90
2023-03-08T03:05:11.447Z,10.20
2023-03-08T03:05:45.303Z,9.43
2023-03-08T03:06:19.953Z,9.90
2023-03-08T03:06:51.870Z,9.30
2023-03-08T03:07:23.703Z,8.35
2023-03-08T03:07:58.509Z,10.32
2023-03-08T03:08:32.147Z,9.00
2023-03-08T03:09:07.692Z,8.82
2023-03-08T03:09:39.593Z,8.75
2023-03-08T03:10:13.362Z,9.30
2023-03-08T03:10:46.297Z,10.02
2023-03-08T03:11:20.337Z,10.15
2023-03-08T03:11:52.315Z,10.10
2023-03-08T03:12:24.173Z,10.00
2023-03-08T03:12:57.047Z,10.10
2023-03-08T03:13:28.930Z,10.65
2023-03-08T03:14:01.203Z,9.57
2023-03-08T03:14:34.063Z,9.32
2023-03-08T03:15:07.490Z,9.52
2023-03-08T03:15:39.978Z,9.32
2023-03-08T03:16:14.862Z,10.15
2023-03-08T03:16:46.810Z,9.13
2023-03-08T03:17:18.650Z,11.35
2023-03-08T03:17:51.498Z,9.98
2023-03-08T03:18:23.351Z,9.02
2023-03-08T03:18:56.528Z,9.85
2023-03-08T03:19:29.410Z,9.55
2023-03-08T03:20:01.283Z,9.30
2023-03-08T03:20:33.316Z,8.95
2023-03-08T03:21:07.358Z,9.80
2023-03-08T03:21:39.762Z,8.93
2023-03-08T03:22:11.658Z,9.10
2023-03-08T03:22:44.798Z,9.77
2023-03-08T03:23:16.644Z,9.85
2023-03-08T03:23:50.037Z,9.65
2023-03-08T03:24:22.894Z,10.23
2023-03-08T03:24:54.736Z,9.43
2023-03-08T03:25:26.731Z,9.85
2023-03-08T03:26:06.017Z,9.45
2023-03-08T03:26:38.938Z,9.88
2023-03-08T03:27:10.812Z,9.63
2023-03-08T03:27:43.677Z,9.65
2023-03-08T03:28:15.545Z,11.40
2023-03-08T03:28:47.960Z,11.20
2023-03-08T03:29:20.838Z,10.43
2023-03-08T03:29:52.940Z,10.70
2023-03-08T03:30:24.812Z,9.82
2023-03-08T03:30:56.691Z,8.98
2023-03-08T03:31:29.692Z,9.90
2023-03-08T03:32:01.582Z,8.98
2023-03-08T03:32:33.599Z,9.45
2023-03-08T03:33:06.489Z,9.77
2023-03-08T03:33:39.317Z,9.70
2023-03-08T03:34:11.186Z,8.95
2023-03-08T03:34:44.070Z,9.10
2023-03-08T03:35:16.102Z,11.32
2023-03-08T03:35:48.009Z,8.75
2023-03-08T03:36:22.972Z,10.35
2023-03-08T03:36:54.860Z,9.50
2023-03-08T03:37:26.721Z,9.70
2023-03-08T03:37:59.545Z,10.50
2023-03-08T03:38:31.776Z,8.57
2023-03-08T03:39:05.072Z,10.13
2023-03-08T03:39:39.047Z,10.10
2023-03-08T03:40:12.542Z,10.20
2023-03-08T03:40:44.408Z,11.30
2023-03-08T03:41:19.456Z,10.43
2023-03-08T03:41:51.328Z,10.10
2023-03-08T03:42:24.265Z,10.23
2023-03-08T03:42:56.138Z,10.23
2023-03-08T03:43:28.049Z,10.13
2023-03-08T03:44:00.936Z,10.05
2023-03-08T03:44:32.892Z,10.25
2023-03-08T03:45:06.627Z,10.32
2023-03-08T03:45:38.545Z,11.35
2023-03-08T03:46:12.668Z,9.80
2023-03-08T03:46:45.620Z,10.57
2023-03-08T03:47:18.080Z,10.63
2023-03-08T03:47:50.015Z,10.20
2023-03-08T03:48:22.846Z,10.93
2023-03-08T03:48:54.736Z,9.70
2023-03-08T03:49:27.215Z,9.85
2023-03-08T03:50:00.126Z,10.30
2023-03-08T03:50:32.024Z,9.98
2023-03-08T03:51:06.092Z,9.85
2023-03-08T03:51:38.973Z,9.82
2023-03-08T03:52:10.826Z,10.90
2023-03-08T03:52:42.684Z,9.70
2023-03-08T03:53:15.498Z,10.60
2023-03-08T03:53:48.210Z,9.82
2023-03-08T03:54:21.560Z,10.88
2023-03-08T03:54:54.436Z,9.98
2023-03-08T03:55:26.432Z,9.80
2023-03-08T03:56:03.845Z,9.55
2023-03-08T03:56:36.703Z,9.60
2023-03-08T03:57:08.585Z,11.18
2023-03-08T03:57:40.460Z,10.07
2023-03-08T03:58:13.357Z,10.23
2023-03-08T03:58:45.983Z,10.73
2023-03-08T03:59:17.958Z,9.70
2023-03-08T03:59:50.895Z,10.27
2023-03-08T04:00:22.795Z,9.65
2023-03-08T04:00:56.157Z,10.57
2023-03-08T04:01:31.092Z,11.13
2023-03-08T04:02:02.990Z,10.98
2023-03-08T04:02:35.927Z,9.90
2023-03-08T04:03:08.083Z,9.55
2023-03-08T04:03:40.131Z,10.43
2023-03-08T04:04:13.042Z,9.70
2023-03-08T04:04:45.066Z,10.63
2023-03-08T04:05:17.100Z,10.40
2023-03-08T04:05:49.970Z,9.68
2023-03-08T04:06:23.822Z,9.93
2023-03-08T04:06:55.864Z,10.70
2023-03-08T04:07:28.912Z,10.73
2023-03-08T04:08:00.887Z,11.15
2023-03-08T04:08:32.875Z,10.00
2023-03-08T04:09:08.224Z,10.18
2023-03-08T04:09:41.577Z,10.80
2023-03-08T04:10:14.310Z,10.38
2023-03-08T04:10:47.168Z,9.80
2023-03-08T04:11:21.581Z,10.75
2023-03-08T04:11:54.609Z,10.10
2023-03-08T04:12:26.566Z,9.77
2023-03-08T04:12:58.464Z,11.07
2023-03-08T04:13:30.336Z,10.52
2023-03-08T04:14:03.547Z,11.23
2023-03-08T04:14:35.424Z,9.90
2023-03-08T04:15:08.596Z,11.05
2023-03-08T04:15:41.531Z,11.57
2023-03-08T04:16:15.013Z,9.85
2023-03-08T04:16:46.908Z,10.25
2023-03-08T04:17:19.741Z,10.20
2023-03-08T04:17:51.904Z,10.50
2023-03-08T04:18:23.787Z,10.55
2023-03-08T04:18:57.996Z,10.60
2023-03-08T04:19:29.956Z,10.40
2023-03-08T04:20:01.795Z,11.25
2023-03-08T04:20:34.773Z,10.52
2023-03-08T04:21:06.996Z,10.23
2023-03-08T04:21:39.136Z,11.05
2023-03-08T04:22:12.074Z,11.38
2023-03-08T04:22:44.014Z,9.95
2023-03-08T04:23:15.944Z,11.20
2023-03-08T04:23:49.217Z,10.88
2023-03-08T04:24:21.063Z,10.50
2023-03-08T04:24:54.285Z,10.60
2023-03-08T04:25:27.150Z,11.65
2023-03-08T04:25:59.088Z,11.00
2023-03-08T04:26:31.193Z,11.27
2023-03-08T04:27:04.189Z,9.40
2023-03-08T04:27:36.052Z,11.02
2023-03-08T04:28:07.918Z,10.65
2023-03-08T04:28:39.916Z,10.40
2023-03-08T04:29:12.847Z,10.25
2023-03-08T04:29:44.702Z,10.00
2023-03-08T04:30:16.858Z,11.02
2023-03-08T04:30:49.721Z,10.52
2023-03-08T04:31:23.559Z,10.65
2023-03-08T04:32:00.072Z,10.95
2023-03-08T04:32:32.243Z,9.38
2023-03-08T04:33:04.135Z,10.52
2023-03-08T04:33:36.955Z,10.63
2023-03-08T04:34:08.772Z,9.50
2023-03-08T04:34:42.872Z,10.07
2023-03-08T04:35:14.916Z,10.45
2023-03-08T04:35:46.951Z,10.77
2023-03-08T04:36:20.845Z,10.65
2023-03-08T04:36:52.767Z,10.90
2023-03-08T04:37:25.109Z,9.90
2023-03-08T04:37:57.994Z,10.75
2023-03-08T04:38:30.700Z,10.93
2023-03-08T04:39:03.614Z,10.80
2023-03-08T04:39:35.471Z,11.45
2023-03-08T04:40:10.346Z,10.95
2023-03-08T04:41:10.301Z,10.75
2023-03-08T04:41:42.199Z,10.57
2023-03-08T04:42:14.052Z,11.70
2023-03-08T04:42:46.907Z,11.55
2023-03-08T04:43:18.770Z,11.30
2023-03-08T04:43:52.569Z,10.77
2023-03-08T04:44:25.508Z,10.52
2023-03-08T04:44:57.384Z,10.35
2023-03-08T04:45:29.261Z,10.02
2023-03-08T04:46:01.680Z,10.35
2023-03-08T04:46:34.552Z,10.63
2023-03-08T04:47:06.653Z,11.63
2023-03-08T04:47:38.532Z,10.95
2023-03-08T04:48:10.480Z,11.05
2023-03-08T04:48:43.619Z,9.13
2023-03-08T04:49:15.492Z,11.13
2023-03-08T04:49:47.355Z,11.05
2023-03-08T04:50:20.293Z,11.65
2023-03-08T04:50:54.024Z,10.80
2023-03-08T04:51:26.815Z,12.20
2023-03-08T04:51:59.791Z,11.20
2023-03-08T04:52:31.630Z,10.27
2023-03-08T04:53:03.480Z,10.63
2023-03-08T04:53:38.416Z,10.93
2023-03-08T04:54:10.364Z,10.40
2023-03-08T04:54:42.288Z,10.13
2023-03-08T04:55:16.612Z,11.32
2023-03-08T04:55:48.636Z,10.70
2023-03-08T04:56:20.580Z,13.02
2023-03-08T04:56:53.432Z,11.63
2023-03-08T04:57:25.320Z,12.30
2023-03-08T04:57:57.521Z,11.82
2023-03-08T04:58:30.976Z,11.55
2023-03-08T04:59:02.916Z,12.05
2023-03-08T04:59:34.930Z,11.68
2023-03-08T05:00:10.152Z,10.70
2023-03-08T05:00:42.422Z,9.30
2023-03-08T05:01:16.116Z,11.45
2023-03-08T05:01:49.040Z,11.30
2023-03-08T05:02:21.985Z,10.77
2023-03-08T05:02:53.921Z,10.57
2023-03-08T05:03:27.181Z,12.07
2023-03-08T05:03:59.030Z,10.35
2023-03-08T05:04:31.093Z,10.27
2023-03-08T05:05:04.337Z,12.13
2023-03-08T05:05:36.318Z,11.57
2023-03-08T05:06:09.212Z,10.88
2023-03-08T05:06:42.070Z,10.35
2023-03-08T05:07:13.976Z,12.10
2023-03-08T05:07:46.197Z,10.35
2023-03-08T05:08:18.778Z,11.18
2023-03-08T05:08:52.185Z,10.60
2023-03-08T05:09:24.087Z,10.88
2023-03-08T05:09:55.936Z,10.27
2023-03-08T05:10:30.227Z,11.43
2023-03-08T05:11:02.619Z,12.07
2023-03-08T05:11:34.522Z,11.38
2023-03-08T05:12:07.943Z,12.07
2023-03-08T05:12:39.839Z,10.98
2023-03-08T05:13:11.717Z,11.55
2023-03-08T05:13:44.583Z,11.07
2023-03-08T05:14:16.430Z,10.60
2023-03-08T05:14:48.314Z,10.93
2023-03-08T05:15:23.409Z,11.98
2023-03-08T05:15:55.575Z,11.25
2023-03-08T05:16:28.122Z,10.82
2023-03-08T05:17:02.557Z,11.48
2023-03-08T05:17:34.533Z,10.73
2023-03-08T05:18:06.467Z,12.00
2023-03-08T05:18:39.317Z,12.07
2023-03-08T05:19:11.173Z,10.90
2023-03-08T05:19:43.050Z,12.00
2023-03-08T05:20:16.174Z,11.15
2023-03-08T05:20:54.444Z,11.85
2023-03-08T05:21:26.337Z,12.70
2023-03-08T05:21:59.162Z,12.13
2023-03-08T05:22:31.084Z,11.70
2023-03-08T05:23:03.020Z,11.57
2023-03-08T05:23:36.012Z,10.90
2023-03-08T05:24:07.974Z,11.93
2023-03-08T05:24:41.335Z,11.85
2023-03-08T05:25:14.168Z,11.13
2023-03-08T05:25:47.457Z,10.50
2023-03-08T05:26:19.560Z,12.45
2023-03-08T05:26:52.406Z,12.25
2023-03-08T05:27:24.501Z,13.13
2023-03-08T05:27:56.346Z,11.15
2023-03-08T05:28:31.600Z,11.45
2023-03-08T05:29:06.250Z,13.32
2023-03-08T05:29:38.144Z,12.02
2023-03-08T05:30:11.260Z,11.98
2023-03-08T05:30:44.105Z,12.38
2023-03-08T05:31:18.150Z,12.02
2023-03-08T05:31:50.127Z,12.77
2023-03-08T05:32:23.035Z,12.20
2023-03-08T05:32:54.910Z,11.38
2023-03-08T05:33:26.828Z,11.40
2023-03-08T05:33:59.859Z,11.90
2023-03-08T05:34:31.716Z,12.82
2023-03-08T05:35:03.904Z,11.90
2023-03-08T05:35:35.866Z,13.85
2023-03-08T05:36:09.599Z,12.25
2023-03-08T05:36:42.587Z,12.98
2023-03-08T05:37:14.449Z,11.85
2023-03-08T05:37:47.290Z,12.60
2023-03-08T05:38:19.202Z,12.73
2023-03-08T05:38:54.721Z,12.60
2023-03-08T05:39:26.547Z,12.38
2023-03-08T05:39:58.444Z,12.02
2023-03-08T05:40:31.262Z,12.02
2023-03-08T05:41:06.865Z,13.77
2023-03-08T05:41:38.722Z,11.73
2023-03-08T05:42:12.039Z,12.80
2023-03-08T05:42:43.957Z,13.48
2023-03-08T05:43:16.007Z,14.10
2023-03-08T05:43:48.892Z,12.98
2023-03-08T05:44:20.738Z,13.93
2023-03-08T05:44:52.640Z,13.82
2023-03-08T05:45:24.585Z,12.45
2023-03-08T05:45:59.114Z,11.88
2023-03-08T05:46:32.142Z,11.73
2023-03-08T05:47:04.462Z,14.02
2023-03-08T05:47:37.327Z,13.18
2023-03-08T05:48:09.241Z,13.88
2023-03-08T05:48:41.359Z,12.85
2023-03-08T05:49:14.218Z,12.57
2023-03-08T05:49:46.076Z,11.50
2023-03-08T05:50:18.089Z,12.88
2023-03-08T05:50:50.944Z,12.75
2023-03-08T05:51:22.839Z,11.95
2023-03-08T05:51:55.728Z,12.75
2023-03-08T05:52:27.574Z,12.70
2023-03-08T05:52:59.466Z,14.65
2023-03-08T05:53:31.355Z,14.57
2023-03-08T05:54:04.223Z,14.98
2023-03-08T05:54:36.147Z,12.60
2023-03-08T05:55:09.012Z,13.13
2023-03-08T05:55:41.944Z,14.45
2023-03-08T05:56:17.681Z,15.40
2023-03-08T05:56:49.529Z,16.35
2023-03-08T05:57:22.370Z,16.55
2023-03-08T05:57:54.230Z,13.63
2023-03-08T05:58:26.079Z,13.80
2023-03-08T05:58:58.941Z,14.40
2023-03-08T05:59:30.938Z,15.00
2023-03-08T06:00:04.497Z,14.00
2023-03-08T06:00:37.375Z,14.30
2023-03-08T06:01:11.566Z,13.98
2023-03-08T06:01:43.428Z,13.85
2023-03-08T06:02:16.332Z,14.02
2023-03-08T06:02:48.207Z,13.10
2023-03-08T06:03:20.625Z,12.98
2023-03-08T06:03:55.516Z,13.75
2023-03-08T06:04:27.472Z,13.57
2023-03-08T06:04:59.471Z,13.50
2023-03-08T06:05:33.131Z,12.75
2023-03-08T06:06:05.528Z,11.93
2023-03-08T06:06:37.471Z,13.70
2023-03-08T06:07:10.313Z,11.80
2023-03-08T06:07:43.676Z,13.57
2023-03-08T06:08:16.541Z,14.10
2023-03-08T06:08:48.648Z,12.48
2023-03-08T06:09:20.515Z,12.75
2023-03-08T06:09:53.397Z,13.18
2023-03-08T06:10:25.636Z,13.50
2023-03-08T06:10:57.496Z,13.13
2023-03-08T06:11:31.760Z,14.63
2023-03-08T06:12:03.871Z,14.55
2023-03-08T06:12:35.732Z,12.75
2023-03-08T06:13:08.543Z,13.55
2023-03-08T06:13:40.757Z,13.05
2023-03-08T06:14:13.339Z,14.10
2023-03-08T06:14:46.317Z,13.00
2023-03-08T06:15:18.430Z,14.00
2023-03-08T06:15:54.307Z,14.52
2023-03-08T06:16:27.239Z,13.77
2023-03-08T06:16:59.118Z,12.77
2023-03-08T06:17:31.027Z,13.68
2023-03-08T06:18:03.892Z,14.13
2023-03-08T06:18:37.089Z,13.63
2023-03-08T06:19:08.948Z,13.85
2023-03-08T06:19:41.916Z,14.38
2023-03-08T06:20:16.391Z,12.70
2023-03-08T06:21:00.237Z,14.32
2023-03-08T06:21:32.150Z,14.60
2023-03-08T06:22:04.043Z,13.77
2023-03-08T06:22:37.243Z,13.63
2023-03-08T06:23:09.079Z,13.07
2023-03-08T06:23:42.423Z,12.82
2023-03-08T06:24:14.313Z,14.02
2023-03-08T06:24:49.592Z,13.48
2023-03-08T06:25:21.521Z,14.43
2023-03-08T06:25:54.726Z,14.10
2023-03-08T06:26:26.611Z,15.07
2023-03-08T06:26:59.860Z,13.90
2023-03-08T06:27:32.760Z,14.98
2023-03-08T06:28:04.763Z,14.80
2023-03-08T06:28:40.179Z,14.80
2023-03-08T06:29:12.020Z,14.70
2023-03-08T06:29:43.892Z,13.77
2023-03-08T06:30:17.133Z,16.80
2023-03-08T06:30:49.679Z,14.40
2023-03-08T06:31:22.776Z,14.82
2023-03-08T06:31:54.830Z,14.05
2023-03-08T06:32:26.843Z,14.60
2023-03-08T06:32:59.831Z,13.55
2023-03-08T06:33:33.283Z,14.00
2023-03-08T06:34:05.133Z,14.05
2023-03-08T06:34:38.323Z,13.50
2023-03-08T06:35:10.722Z,15.70
2023-03-08T06:35:43.764Z,13.88
2023-03-08T06:36:17.426Z,13.40
2023-03-08T06:36:49.320Z,13.18
2023-03-08T06:37:22.133Z,13.45
2023-03-08T06:37:54.003Z,14.07
2023-03-08T06:38:29.412Z,15.27
2023-03-08T06:39:03.250Z,13.98
2023-03-08T06:39:35.252Z,13.32
2023-03-08T06:40:09.183Z,13.95
2023-03-08T06:40:42.211Z,14.75
2023-03-08T06:41:16.096Z,15.70
2023-03-08T06:41:48.044Z,14.45
2023-03-08T06:42:31.351Z,14.60
2023-03-08T06:43:11.894Z,14.60
2023-03-08T06:43:45.277Z,14.20
2023-03-08T06:44:17.172Z,12.73
2023-03-08T06:44:49.031Z,14.32
2023-03-08T06:45:21.852Z,14.73
2023-03-08T06:45:53.876Z,15.18
2023-03-08T06:46:25.829Z,13.68
2023-03-08T06:46:58.916Z,14.77
2023-03-08T06:47:31.193Z,14.88
2023-03-08T06:48:03.100Z,14.70
2023-03-08T06:48:36.586Z,14.80
2023-03-08T06:49:09.117Z,15.13
2023-03-08T06:49:41.131Z,13.85
2023-03-08T06:50:14.031Z,14.63
2023-03-08T06:50:46.293Z,14.70
2023-03-08T06:51:18.558Z,13.88
2023-03-08T06:51:51.439Z,13.80
2023-03-08T06:52:23.263Z,13.68
2023-03-08T06:52:55.630Z,13.93
2023-03-08T06:53:28.552Z,13.40
2023-03-08T06:54:00.441Z,14.25
2023-03-08T06:54:33.285Z,15.82
2023-03-08T06:55:05.858Z,15.20
2023-03-08T06:55:38.836Z,14.73
2023-03-08T06:56:13.929Z,15.77
2023-03-08T06:56:46.945Z,15.65
2023-03-08T06:57:18.814Z,13.80
2023-03-08T06:57:53.314Z,14.75
2023-03-08T06:58:25.228Z,15.25
2023-03-08T06:58:58.181Z,16.77
2023-03-08T06:59:30.141Z,14.32
2023-03-08T07:00:02.125Z,14.35
2023-03-08T07:00:35.458Z,13.70
2023-03-08T07:01:09.614Z,14.93
2023-03-08T07:01:41.979Z,15.18
2023-03-08T07:02:14.874Z,15.93
2023-03-08T07:02:48.484Z,14.20
2023-03-08T07:03:20.377Z,13.90
2023-03-08T07:03:53.363Z,15.20
2023-03-08T07:04:25.348Z,14.98
2023-03-08T07:04:57.283Z,14.30
2023-03-08T07:05:30.368Z,16.20
2023-03-08T07:06:03.525Z,15.45
2023-03-08T07:06:36.392Z,14.65
2023-03-08T07:07:08.945Z,12.95
2023-03-08T07:07:40.993Z,15.63
2023-03-08T07:08:13.816Z,15.18
2023-03-08T07:08:45.709Z,14.23
2023-03-08T07:09:17.586Z,14.00
2023-03-08T07:09:50.544Z,15.18
2023-03-08T07:10:22.889Z,13.68
2023-03-08T07:10:56.075Z,13.85
2023-03-08T07:11:29.500Z,15.43